Time;durP1;ratioP1;P1;durP2;ratioP2;P2;SDS_P1;SDS_P2;PMS_P1;PMS_P2;Temp;Humidity;BMP_temperature;BMP_pressure;BME280_temperature;BME280_humidity;BME280_pressure;Samples;Min_cycle;Max_cycle;Signal;HPM_P1;HPM_P2
2021/03/12 00:01:26;;;;;;;9.38;2.17;;;;;;;;;;4896680;29;20052;-83
2021/03/12 00:03:53;;;;;;;21.67;2.40;;;;;;;;;;4886746;29;20203;-84
2021/03/12 00:06:20;;;;;;;10.95;2.00;;;;;;;;;;4889773;29;20052;-83
2021/03/12 00:08:47;;;;;;;8.18;2.42;;;;;;;;;;4896096;29;20549;-83
2021/03/12 00:11:14;;;;;;;8.15;2.15;;;;;;;;;;4897057;29;20053;-83
2021/03/12 00:13:41;;;;;;;18.13;2.33;;;;;;;;;;4887501;29;20053;-83
2021/03/12 00:16:10;;;;;;;9.13;2.00;;;;;;;;;;4879004;29;20060;-83
2021/03/12 00:18:42;;;;;;;13.57;2.35;;;;;;;;;;4895109;29;20071;-83
2021/03/12 00:21:09;;;;;;;16.85;2.47;;;;;;;;;;4895124;29;20127;-83
2021/03/12 00:23:36;;;;;;;14.63;2.67;;;;;;;;;;4895553;29;20092;-83
2021/03/12 00:26:03;;;;;;;12.93;2.35;;;;;;;;;;4896370;29;20105;-84
2021/03/12 00:28:30;;;;;;;7.90;2.30;;;;;;;;;;4896834;29;20502;-83
2021/03/12 00:30:58;;;;;;;6.93;2.10;;;;;;;;;;4895742;29;20060;-83
2021/03/12 00:33:25;;;;;;;19.70;2.40;;;;;;;;;;4895731;29;20140;-84
2021/03/12 00:35:52;;;;;;;6.65;1.98;;;;;;;;;;4895779;29;20120;-84
2021/03/12 00:38:19;;;;;;;10.82;2.38;;;;;;;;;;4895920;29;20095;-83
2021/03/12 00:40:50;;;;;;;15.13;2.78;;;;;;;;;;4895811;29;20060;-83
2021/03/12 00:43:17;;;;;;;11.52;2.70;;;;;;;;;;4895772;29;20053;-83
2021/03/12 00:45:48;;;;;;;9.95;2.28;;;;;;;;;;4896475;29;20063;-83
2021/03/12 00:48:15;;;;;;;7.65;2.13;;;;;;;;;;4896363;29;20577;-83
2021/03/12 00:50:42;;;;;;;10.43;2.05;;;;;;;;;;4895332;29;20112;-84
2021/03/12 00:53:18;;;;;;;5.32;2.10;;;;;;;;;;4895623;29;20409;-83
2021/03/12 00:55:44;;;;;;;8.15;1.70;;;;;;;;;;4895342;29;20059;-83
2021/03/12 00:58:11;;;;;;;10.57;2.33;;;;;;;;;;4895728;29;20111;-83
2021/03/12 01:00:39;;;;;;;9.27;2.00;;;;;;;;;;4896992;29;20104;-83
2021/03/12 01:03:06;;;;;;;5.07;1.73;;;;;;;;;;4894709;29;20459;-83
2021/03/12 01:05:33;;;;;;;8.02;1.88;;;;;;;;;;4895136;29;20053;-83
2021/03/12 01:08:01;;;;;;;9.30;2.08;;;;;;;;;;4895682;29;20058;-83
2021/03/12 01:10:28;;;;;;;6.18;1.95;;;;;;;;;;4894956;29;20061;-83
2021/03/12 01:12:55;;;;;;;10.40;2.22;;;;;;;;;;4894548;29;20057;-83
2021/03/12 01:15:23;;;;;;;9.35;1.98;;;;;;;;;;4876646;29;20116;-83
2021/03/12 01:17:50;;;;;;;8.98;2.13;;;;;;;;;;4891848;29;20052;-83
2021/03/12 01:20:28;;;;;;;10.85;2.45;;;;;;;;;;4891563;29;20057;-83
2021/03/12 01:22:55;;;;;;;11.25;2.70;;;;;;;;;;4891956;29;20049;-84
2021/03/12 01:25:24;;;;;;;10.93;2.53;;;;;;;;;;4891802;29;20053;-83
2021/03/12 01:27:51;;;;;;;14.50;4.13;;;;;;;;;;4891825;29;20120;-83
2021/03/12 01:30:20;;;;;;;11.82;3.00;;;;;;;;;;4891668;29;20060;-84
2021/03/12 01:32:50;;;;;;;9.02;2.63;;;;;;;;;;4876102;29;20485;-83
2021/03/12 01:35:17;;;;;;;9.95;2.53;;;;;;;;;;4879711;29;20057;-84
2021/03/12 01:37:44;;;;;;;5.40;2.33;;;;;;;;;;4893563;29;20435;-83
2021/03/12 01:40:13;;;;;;;14.68;2.55;;;;;;;;;;4894857;29;20101;-84
2021/03/12 01:42:49;;;;;;;7.55;2.13;;;;;;;;;;4895123;29;20577;-84
2021/03/12 01:45:20;;;;;;;7.95;2.55;;;;;;;;;;4894878;29;20111;-83
2021/03/12 01:47:49;;;;;;;9.20;2.22;;;;;;;;;;4881822;29;20414;-83
2021/03/12 01:50:17;;;;;;;10.13;2.40;;;;;;;;;;4883930;29;20058;-84
2021/03/12 01:52:44;;;;;;;13.18;3.10;;;;;;;;;;4895461;29;20116;-84
2021/03/12 01:55:16;;;;;;;10.23;2.20;;;;;;;;;;4879235;29;20053;-83
2021/03/12 01:57:43;;;;;;;7.13;2.20;;;;;;;;;;4877287;29;20062;-83
2021/03/12 02:00:10;;;;;;;5.13;1.50;;;;;;;;;;4876705;29;20486;-83
2021/03/12 02:02:38;;;;;;;5.60;1.95;;;;;;;;;;4875833;29;20049;-84
2021/03/12 02:05:05;;;;;;;8.10;2.25;;;;;;;;;;4875432;29;20506;-83
2021/03/12 02:07:34;;;;;;;11.05;2.03;;;;;;;;;;4876134;29;20135;-83
2021/03/12 02:10:04;;;;;;;14.55;1.90;;;;;;;;;;4875783;29;20049;-83
2021/03/12 02:12:40;;;;;;;5.00;2.40;;;;;;;;;;4875593;29;20535;-83
2021/03/12 02:15:09;;;;;;;9.32;2.35;;;;;;;;;;4875080;29;20087;-83
2021/03/12 02:17:40;;;;;;;11.52;2.40;;;;;;;;;;4885456;29;20155;-83
2021/03/12 02:20:13;;;;;;;12.50;3.15;;;;;;;;;;4892633;29;20213;-83
2021/03/12 02:22:44;;;;;;;6.88;2.80;;;;;;;;;;4894768;29;20103;-83
2021/03/12 02:25:15;;;;;;;12.80;3.30;;;;;;;;;;4895986;29;20049;-83
2021/03/12 02:27:42;;;;;;;15.43;3.28;;;;;;;;;;4894897;29;20398;-83
2021/03/12 02:30:10;;;;;;;9.80;3.42;;;;;;;;;;4894672;29;20132;-83
2021/03/12 02:32:40;;;;;;;14.05;4.00;;;;;;;;;;4895097;29;20049;-83
2021/03/12 02:35:11;;;;;;;14.27;4.10;;;;;;;;;;4894676;29;20101;-83
2021/03/12 02:37:39;;;;;;;11.75;4.10;;;;;;;;;;4894386;29;20438;-83
2021/03/12 02:40:07;;;;;;;12.85;3.70;;;;;;;;;;4893929;29;20505;-83
2021/03/12 02:42:34;;;;;;;10.07;4.00;;;;;;;;;;4893765;29;20446;-83
2021/03/12 02:45:02;;;;;;;15.38;4.55;;;;;;;;;;4894028;29;20646;-83
2021/03/12 02:47:31;;;;;;;11.88;3.95;;;;;;;;;;4894597;29;20203;-83
2021/03/12 02:49:59;;;;;;;13.73;4.40;;;;;;;;;;4895162;29;20194;-83
2021/03/12 02:52:27;;;;;;;12.75;4.32;;;;;;;;;;4894049;29;20114;-83
2021/03/12 02:54:54;;;;;;;13.70;4.13;;;;;;;;;;4894137;29;20056;-83
2021/03/12 02:57:22;;;;;;;12.63;4.28;;;;;;;;;;4895664;29;20553;-83
2021/03/12 02:59:54;;;;;;;14.27;4.55;;;;;;;;;;4896615;29;20057;-83
2021/03/12 03:02:25;;;;;;;7.72;3.78;;;;;;;;;;4895024;29;20559;-83
2021/03/12 03:04:53;;;;;;;7.85;4.07;;;;;;;;;;4895801;29;20048;-82
2021/03/12 03:07:22;;;;;;;12.70;4.50;;;;;;;;;;4895692;29;20113;-83
2021/03/12 03:09:49;;;;;;;10.70;4.72;;;;;;;;;;4896936;29;20056;-83
2021/03/12 03:12:20;;;;;;;12.98;4.38;;;;;;;;;;4896625;29;20204;-83
2021/03/12 03:14:49;;;;;;;9.55;3.90;;;;;;;;;;4896525;29;20215;-83
2021/03/12 03:17:18;;;;;;;15.02;4.05;;;;;;;;;;4895306;29;20344;-83
2021/03/12 03:19:46;;;;;;;17.23;3.63;;;;;;;;;;4892752;29;20537;-83
2021/03/12 03:22:14;;;;;;;12.60;3.63;;;;;;;;;;4893542;29;20057;-83
2021/03/12 03:24:43;;;;;;;14.13;4.07;;;;;;;;;;4893330;29;20053;-83
2021/03/12 03:27:11;;;;;;;7.43;3.40;;;;;;;;;;4896735;29;20077;-83
2021/03/12 03:29:38;;;;;;;8.40;3.65;;;;;;;;;;4896597;29;20104;-83
2021/03/12 03:32:05;;;;;;;13.93;3.17;;;;;;;;;;4889972;29;20061;-83
2021/03/12 03:34:32;;;;;;;12.88;4.45;;;;;;;;;;4877635;29;20488;-83
2021/03/12 03:36:59;;;;;;;12.05;3.63;;;;;;;;;;4878038;29;20049;-83
2021/03/12 03:39:25;;;;;;;16.45;4.00;;;;;;;;;;4878837;29;20099;-82
2021/03/12 03:41:53;;;;;;;13.15;3.83;;;;;;;;;;4878198;29;20125;-83
2021/03/12 03:44:23;;;;;;;11.57;3.50;;;;;;;;;;4878502;29;20063;-83
2021/03/12 03:46:52;;;;;;;9.30;3.15;;;;;;;;;;4878484;29;20184;-83
2021/03/12 03:49:19;;;;;;;9.52;3.40;;;;;;;;;;4877696;29;20061;-83
2021/03/12 03:51:46;;;;;;;7.82;3.20;;;;;;;;;;4892593;29;20514;-83
2021/03/12 03:54:14;;;;;;;12.38;3.25;;;;;;;;;;4896764;29;20084;-83
2021/03/12 03:56:46;;;;;;;11.13;3.53;;;;;;;;;;4896073;29;20140;-83
2021/03/12 03:59:14;;;;;;;15.13;3.80;;;;;;;;;;4880864;29;20080;-83
2021/03/12 04:01:41;;;;;;;12.77;3.78;;;;;;;;;;4879032;29;20109;-83
2021/03/12 04:04:08;;;;;;;13.00;3.30;;;;;;;;;;4877802;29;20060;-83
2021/03/12 04:06:37;;;;;;;18.00;4.70;;;;;;;;;;4877266;29;20065;-83
2021/03/12 04:09:06;;;;;;;12.63;4.10;;;;;;;;;;4877506;29;20517;-83
2021/03/12 04:11:34;;;;;;;14.60;4.03;;;;;;;;;;4877851;29;20061;-83
2021/03/12 04:14:04;;;;;;;10.40;3.40;;;;;;;;;;4879065;29;20052;-83
2021/03/12 04:16:31;;;;;;;13.13;3.78;;;;;;;;;;4877709;29;20140;-84
2021/03/12 04:19:00;;;;;;;10.95;3.58;;;;;;;;;;4877278;29;20056;-83
2021/03/12 04:21:27;;;;;;;9.40;4.03;;;;;;;;;;4877417;29;20049;-83
2021/03/12 04:23:55;;;;;;;14.93;4.05;;;;;;;;;;4877548;29;20052;-83
2021/03/12 04:26:22;;;;;;;12.43;4.03;;;;;;;;;;4877390;29;20561;-83
2021/03/12 04:28:49;;;;;;;13.20;3.55;;;;;;;;;;4877340;29;20108;-83
2021/03/12 04:31:16;;;;;;;13.25;3.72;;;;;;;;;;4877389;29;20064;-83
2021/03/12 04:33:45;;;;;;;13.20;4.00;;;;;;;;;;4877296;29;20132;-83
2021/03/12 04:36:17;;;;;;;12.95;4.53;;;;;;;;;;4877351;29;20135;-82
2021/03/12 04:38:49;;;;;;;12.73;4.38;;;;;;;;;;4876514;29;20065;-83
2021/03/12 04:41:16;;;;;;;15.52;4.88;;;;;;;;;;4877874;29;20060;-83
2021/03/12 04:43:44;;;;;;;15.07;4.40;;;;;;;;;;4884012;29;20052;-83
2021/03/12 04:46:14;;;;;;;17.08;4.45;;;;;;;;;;4885057;29;20060;-82
2021/03/12 04:48:42;;;;;;;11.32;3.78;;;;;;;;;;4908349;29;20499;-83
2021/03/12 04:51:10;;;;;;;19.83;4.60;;;;;;;;;;4907899;29;20387;-83
2021/03/12 04:53:40;;;;;;;15.95;4.50;;;;;;;;;;4876681;29;20436;-83
2021/03/12 04:56:11;;;;;;;14.57;4.25;;;;;;;;;;4877217;29;20058;-83
2021/03/12 04:58:38;;;;;;;12.23;4.30;;;;;;;;;;4877154;29;20084;-83
2021/03/12 05:01:07;;;;;;;10.02;4.55;;;;;;;;;;4876866;29;20080;-83
2021/03/12 05:03:34;;;;;;;22.15;4.35;;;;;;;;;;4888365;29;20076;-83
2021/03/12 05:06:03;;;;;;;10.63;4.63;;;;;;;;;;4887099;29;20060;-83
2021/03/12 05:08:31;;;;;;;18.50;5.22;;;;;;;;;;4878455;29;20057;-83
2021/03/12 05:10:59;;;;;;;17.40;4.95;;;;;;;;;;4876861;29;20501;-84
2021/03/12 05:13:28;;;;;;;31.45;5.53;;;;;;;;;;4878156;29;20092;-83
2021/03/12 05:15:57;;;;;;;13.23;4.75;;;;;;;;;;4891697;29;20709;-84
2021/03/12 05:18:25;;;;;;;16.15;5.18;;;;;;;;;;4895087;29;20076;-84
2021/03/12 05:20:53;;;;;;;14.35;5.03;;;;;;;;;;4891025;29;20406;-84
2021/03/12 05:23:20;;;;;;;20.92;5.72;;;;;;;;;;4876298;29;20459;-83
2021/03/12 05:25:47;;;;;;;14.25;5.72;;;;;;;;;;4876600;29;20068;-83
2021/03/12 05:28:14;;;;;;;21.75;6.25;;;;;;;;;;4876782;29;20117;-83
2021/03/12 05:30:42;;;;;;;25.48;5.93;;;;;;;;;;4876123;29;20056;-83
2021/03/12 05:33:09;;;;;;;23.73;6.20;;;;;;;;;;4880138;29;20109;-84
2021/03/12 05:35:36;;;;;;;23.15;6.28;;;;;;;;;;4884058;29;20495;-83
2021/03/12 05:38:03;;;;;;;16.83;5.95;;;;;;;;;;4877719;29;20124;-84
2021/03/12 05:40:33;;;;;;;22.77;6.57;;;;;;;;;;4885921;29;20100;-84
2021/03/12 05:43:00;;;;;;;31.25;6.47;;;;;;;;;;4882837;29;20055;-84
2021/03/12 05:45:47;;;;;;;21.27;5.70;;;;;;;;;;4880585;29;20056;-82
2021/03/12 05:48:16;;;;;;;19.25;6.18;;;;;;;;;;4876173;29;20057;-83
2021/03/12 05:50:43;;;;;;;15.65;5.80;;;;;;;;;;4875891;29;20049;-82
2021/03/12 05:53:10;;;;;;;21.40;6.60;;;;;;;;;;4876552;29;20064;-83
2021/03/12 05:55:37;;;;;;;25.77;5.60;;;;;;;;;;4877617;29;20111;-82
2021/03/12 05:58:14;;;;;;;17.20;6.60;;;;;;;;;;4876356;29;20112;-82
2021/03/12 06:00:40;;;;;;;28.37;6.37;;;;;;;;;;4876439;29;20049;-83
2021/03/12 06:03:08;;;;;;;18.83;6.55;;;;;;;;;;4876264;29;20080;-83
2021/03/12 06:05:35;;;;;;;22.85;7.50;;;;;;;;;;4876418;29;20045;-82
2021/03/12 06:08:01;;;;;;;20.95;7.00;;;;;;;;;;4876132;29;20059;-82
2021/03/12 06:10:28;;;;;;;20.85;7.60;;;;;;;;;;4875939;29;20061;-82
2021/03/12 06:12:56;;;;;;;27.73;6.93;;;;;;;;;;4876189;29;20057;-82
2021/03/12 06:15:36;;;;;;;23.85;6.95;;;;;;;;;;4879504;29;20052;-92
2021/03/12 06:18:15;;;;;;;24.35;7.13;;;;;;;;;;4879842;29;20049;-92
2021/03/12 06:20:43;;;;;;;20.20;5.93;;;;;;;;;;4880355;29;20049;-93
2021/03/12 06:23:29;;;;;;;23.83;6.22;;;;;;;;;;4880007;29;20060;-92
2021/03/12 06:25:56;;;;;;;24.73;7.57;;;;;;;;;;4879838;29;20136;-92
2021/03/12 06:28:23;;;;;;;19.50;5.43;;;;;;;;;;4879692;29;20057;-92
2021/03/12 06:30:50;;;;;;;14.35;5.93;;;;;;;;;;4879747;29;20056;-93
2021/03/12 06:33:30;;;;;;;25.13;6.18;;;;;;;;;;4879638;29;20061;-91
2021/03/12 06:35:58;;;;;;;17.20;5.18;;;;;;;;;;4882713;29;20049;-92
2021/03/12 06:38:30;;;;;;;21.45;5.43;;;;;;;;;;4881180;29;20049;-92
2021/03/12 06:41:00;;;;;;;20.33;5.43;;;;;;;;;;4879389;29;20510;-92
2021/03/12 06:43:29;;;;;;;25.05;6.15;;;;;;;;;;4879703;29;20056;-91
2021/03/12 06:45:58;;;;;;;21.80;5.20;;;;;;;;;;4879059;29;20053;-90
2021/03/12 06:48:25;;;;;;;24.17;6.30;;;;;;;;;;4889006;29;20048;-91
2021/03/12 06:50:57;;;;;;;22.95;5.35;;;;;;;;;;4897243;29;20053;-91
2021/03/12 06:53:26;;;;;;;19.77;4.57;;;;;;;;;;4896861;29;20620;-91
2021/03/12 06:55:55;;;;;;;21.08;4.38;;;;;;;;;;4897822;29;20447;-91
2021/03/12 06:58:22;;;;;;;12.23;4.00;;;;;;;;;;4897875;29;20380;-91
2021/03/12 07:00:49;;;;;;;15.38;4.25;;;;;;;;;;4899006;29;20048;-92
2021/03/12 07:03:17;;;;;;;18.15;3.58;;;;;;;;;;4902120;29;20075;-92
2021/03/12 07:05:59;;;;;;;23.90;4.40;;;;;;;;;;4902201;29;20059;-92
2021/03/12 07:08:28;;;;;;;20.25;4.85;;;;;;;;;;4900977;29;20459;-92
2021/03/12 07:10:56;;;;;;;30.05;5.63;;;;;;;;;;4902431;29;20052;-92
2021/03/12 07:13:24;;;;;;;27.08;4.97;;;;;;;;;;4901705;29;20100;-92
2021/03/12 07:15:52;;;;;;;24.30;6.63;;;;;;;;;;4901098;29;20067;-92
2021/03/12 07:18:19;;;;;;;21.17;3.85;;;;;;;;;;4901055;29;20100;-92
2021/03/12 07:20:47;;;;;;;22.83;5.63;;;;;;;;;;4901364;29;20059;-92
2021/03/12 07:23:22;;;;;;;21.98;4.20;;;;;;;;;;4901018;29;20057;-92
2021/03/12 07:25:51;;;;;;;22.17;4.57;;;;;;;;;;4900882;29;20056;-92
2021/03/12 07:28:29;;;;;;;24.88;4.82;;;;;;;;;;4900730;29;20056;-92
2021/03/12 07:30:59;;;;;;;35.42;4.85;;;;;;;;;;4900619;29;20059;-93
2021/03/12 07:33:28;;;;;;;22.52;3.90;;;;;;;;;;4901381;29;20682;-92
2021/03/12 07:35:59;;;;;;;15.27;3.33;;;;;;;;;;4896876;29;20045;-90
2021/03/12 07:38:31;;;;;;;23.73;3.35;;;;;;;;;;4881378;29;20085;-91
2021/03/12 07:40:58;;;;;;;19.00;4.45;;;;;;;;;;4881269;29;20631;-92
2021/03/12 07:43:25;;;;;;;20.50;4.15;;;;;;;;;;4880957;29;20506;-91
2021/03/12 07:45:52;;;;;;;21.08;3.05;;;;;;;;;;4880875;29;20053;-92
2021/03/12 07:48:26;;;;;;;18.10;3.90;;;;;;;;;;4880953;29;20091;-92
2021/03/12 07:51:03;;;;;;;15.63;3.35;;;;;;;;;;4879984;29;20060;-90
2021/03/12 07:53:45;;;;;;;18.73;4.72;;;;;;;;;;4880016;29;20049;-91
2021/03/12 07:56:13;;;;;;;21.40;3.55;;;;;;;;;;4880793;29;20049;-92
2021/03/12 07:58:54;;;;;;;19.58;4.10;;;;;;;;;;4880229;29;20486;-91
2021/03/12 08:01:25;;;;;;;19.95;3.03;;;;;;;;;;4879814;29;20113;-91
2021/03/12 08:03:53;;;;;;;22.13;3.05;;;;;;;;;;4880119;29;20560;-91
2021/03/12 08:06:21;;;;;;;13.90;2.70;;;;;;;;;;4879783;29;20048;-90
2021/03/12 08:08:51;;;;;;;15.40;2.80;;;;;;;;;;4879333;29;20061;-91
2021/03/12 08:11:18;;;;;;;13.40;3.03;;;;;;;;;;4879495;29;20467;-91
2021/03/12 08:13:48;;;;;;;24.65;4.40;;;;;;;;;;4878498;29;20207;-91
2021/03/12 08:16:16;;;;;;;17.95;3.33;;;;;;;;;;4881057;29;20056;-91
2021/03/12 08:18:43;;;;;;;24.65;3.58;;;;;;;;;;4880149;29;20049;-90
2021/03/12 08:21:35;;;;;;;13.98;2.50;;;;;;;;;;4881725;29;20053;-90
2021/03/12 08:24:24;;;;;;;14.82;2.95;;;;;;;;;;4880570;29;20535;-90
2021/03/12 08:26:55;;;;;;;14.13;2.75;;;;;;;;;;4879829;29;20407;-90
2021/03/12 08:29:31;;;;;;;21.85;3.53;;;;;;;;;;4879832;29;20049;-90
2021/03/12 08:31:58;;;;;;;18.58;2.90;;;;;;;;;;4879623;29;20061;-90
2021/03/12 08:34:41;;;;;;;9.98;2.70;;;;;;;;;;4879229;29;20060;-90
2021/03/12 08:37:38;;;;;;;19.17;2.67;;;;;;;;;;4879446;29;20491;-90
2021/03/12 08:40:14;;;;;;;18.80;2.92;;;;;;;;;;4879288;29;20105;-90
2021/03/12 08:42:55;;;;;;;17.50;3.10;;;;;;;;;;4879081;29;20057;-90
2021/03/12 08:45:34;;;;;;;12.20;2.75;;;;;;;;;;4878944;29;20088;-90
2021/03/12 08:48:04;;;;;;;25.33;3.97;;;;;;;;;;4880164;29;20056;-90
2021/03/12 08:50:34;;;;;;;19.67;3.58;;;;;;;;;;4878305;29;20574;-90
2021/03/12 08:53:02;;;;;;;15.63;3.17;;;;;;;;;;4877861;29;20502;-89
2021/03/12 08:55:29;;;;;;;21.80;3.90;;;;;;;;;;4879374;29;20069;-90
2021/03/12 08:58:22;;;;;;;18.25;3.85;;;;;;;;;;4878344;29;20676;-90
2021/03/12 09:00:54;;;;;;;19.88;4.38;;;;;;;;;;4864171;29;20555;-90
2021/03/12 09:03:20;;;;;;;15.50;2.70;;;;;;;;;;4878838;29;20499;-89
2021/03/12 09:05:52;;;;;;;17.25;4.28;;;;;;;;;;4878467;29;20053;-89
2021/03/12 09:08:23;;;;;;;22.30;4.45;;;;;;;;;;4879788;29;20390;-90
2021/03/12 09:10:50;;;;;;;12.23;3.08;;;;;;;;;;4877996;29;20053;-90
2021/03/12 09:13:21;;;;;;;11.10;2.72;;;;;;;;;;4877969;29;20053;-90
2021/03/12 09:15:48;;;;;;;16.83;2.90;;;;;;;;;;4878310;29;20392;-90
2021/03/12 09:18:34;;;;;;;15.60;2.70;;;;;;;;;;4878668;29;20140;-89
2021/03/12 09:21:02;;;;;;;16.15;2.85;;;;;;;;;;4879087;29;20073;-90
2021/03/12 09:23:38;;;;;;;12.48;3.25;;;;;;;;;;4877586;29;20391;-89
2021/03/12 09:26:06;;;;;;;12.80;2.67;;;;;;;;;;4878449;29;20053;-90
2021/03/12 09:28:36;;;;;;;9.68;2.83;;;;;;;;;;4878284;29;20092;-89
2021/03/12 09:31:11;;;;;;;16.00;3.08;;;;;;;;;;4882421;29;20056;-91
2021/03/12 09:33:43;;;;;;;14.93;3.38;;;;;;;;;;4878831;29;20178;-92
2021/03/12 09:36:29;;;;;;;11.98;3.25;;;;;;;;;;4877766;29;20064;-90
2021/03/12 09:39:21;;;;;;;16.77;3.28;;;;;;;;;;4878212;29;20053;-91
2021/03/12 09:42:08;;;;;;;16.88;3.58;;;;;;;;;;4876789;29;20056;-92
2021/03/12 09:44:46;;;;;;;16.65;4.28;;;;;;;;;;4878255;29;20045;-91
2021/03/12 09:47:19;;;;;;;12.45;4.15;;;;;;;;;;4879127;29;20097;-92
2021/03/12 09:49:47;;;;;;;14.98;3.13;;;;;;;;;;4878312;29;20447;-91
2021/03/12 09:52:26;;;;;;;16.92;4.05;;;;;;;;;;4878822;29;20059;-91
2021/03/12 09:54:54;;;;;;;19.75;3.00;;;;;;;;;;4879243;29;20049;-91
2021/03/12 09:57:22;;;;;;;15.25;2.92;;;;;;;;;;4878336;29;20053;-92
2021/03/12 09:59:52;;;;;;;13.38;3.15;;;;;;;;;;4878107;29;20060;-89
2021/03/12 10:02:21;;;;;;;15.25;3.60;;;;;;;;;;4878116;29;20692;-91
2021/03/12 10:05:03;;;;;;;13.85;3.45;;;;;;;;;;4877308;29;20065;-91
2021/03/12 10:07:48;;;;;;;12.80;2.78;;;;;;;;;;4877246;29;20057;-91
2021/03/12 10:10:29;;;;;;;14.57;3.00;;;;;;;;;;4877177;29;20053;-92
2021/03/12 10:13:05;;;;;;;14.90;3.05;;;;;;;;;;4877427;29;20056;-91
2021/03/12 10:15:34;;;;;;;14.80;3.28;;;;;;;;;;4877690;29;20056;-91
2021/03/12 10:18:02;;;;;;;11.80;3.55;;;;;;;;;;4877794;29;20052;-91
2021/03/12 10:20:33;;;;;;;15.57;3.40;;;;;;;;;;4877322;29;20053;-91
2021/03/12 10:23:02;;;;;;;10.05;3.90;;;;;;;;;;4877502;29;20571;-91
2021/03/12 10:25:45;;;;;;;10.60;2.50;;;;;;;;;;4876647;29;20113;-92
2021/03/12 10:28:20;;;;;;;13.68;3.15;;;;;;;;;;4876134;29;20053;-90
2021/03/12 10:30:53;;;;;;;9.88;2.95;;;;;;;;;;4879001;29;20511;-91
2021/03/12 10:33:24;;;;;;;9.55;2.92;;;;;;;;;;4877020;29;20079;-90
2021/03/12 10:36:05;;;;;;;11.95;2.53;;;;;;;;;;4878354;29;20236;-91
2021/03/12 10:38:34;;;;;;;6.38;2.38;;;;;;;;;;4881346;29;20052;-90
2021/03/12 10:41:06;;;;;;;12.77;2.50;;;;;;;;;;4882141;29;20136;-91
2021/03/12 10:43:33;;;;;;;10.40;2.92;;;;;;;;;;4880516;29;20113;-89
2021/03/12 10:46:02;;;;;;;13.80;2.83;;;;;;;;;;4881159;29;20053;-89
2021/03/12 10:48:37;;;;;;;14.38;2.92;;;;;;;;;;4881434;29;20060;-90
2021/03/12 10:51:06;;;;;;;10.02;2.42;;;;;;;;;;4881243;29;20053;-91
2021/03/12 10:53:57;;;;;;;13.82;3.15;;;;;;;;;;4880878;29;20491;-91
2021/03/12 10:56:24;;;;;;;14.25;3.20;;;;;;;;;;4880351;29;20726;-90
2021/03/12 10:58:53;;;;;;;12.82;2.92;;;;;;;;;;4881323;29;20064;-91
2021/03/12 11:01:25;;;;;;;10.38;2.22;;;;;;;;;;4882746;29;20049;-91
2021/03/12 11:04:03;;;;;;;13.57;2.40;;;;;;;;;;4882748;29;20052;-91
2021/03/12 11:06:39;;;;;;;12.10;2.45;;;;;;;;;;4882091;29;20055;-91
2021/03/12 11:09:09;;;;;;;8.65;2.40;;;;;;;;;;4881035;29;20117;-91
2021/03/12 11:11:37;;;;;;;8.93;2.42;;;;;;;;;;4881092;29;20266;-81
2021/03/12 11:14:05;;;;;;;7.70;1.90;;;;;;;;;;4880556;29;20140;-81
2021/03/12 11:16:33;;;;;;;8.43;2.15;;;;;;;;;;4880111;29;20140;-81
2021/03/12 11:19:00;;;;;;;8.80;2.55;;;;;;;;;;4880696;29;20565;-82
2021/03/12 11:21:30;;;;;;;12.88;2.35;;;;;;;;;;4880038;29;20057;-81
2021/03/12 11:23:58;;;;;;;10.95;2.20;;;;;;;;;;4896635;29;20061;-81
2021/03/12 11:26:25;;;;;;;11.88;2.25;;;;;;;;;;4897743;29;20048;-81
2021/03/12 11:28:52;;;;;;;14.48;3.28;;;;;;;;;;4896584;29;20621;-81
2021/03/12 11:31:19;;;;;;;7.03;2.45;;;;;;;;;;4897039;29;20052;-80
2021/03/12 11:33:47;;;;;;;13.90;2.65;;;;;;;;;;4896034;29;20072;-82
2021/03/12 11:36:14;;;;;;;13.43;2.67;;;;;;;;;;4900997;29;20057;-80
2021/03/12 11:38:41;;;;;;;13.32;2.70;;;;;;;;;;4900695;29;20048;-81
2021/03/12 11:41:08;;;;;;;7.15;2.03;;;;;;;;;;4899843;29;20056;-81
2021/03/12 11:43:34;;;;;;;10.43;1.98;;;;;;;;;;4898973;29;20048;-81
2021/03/12 11:46:01;;;;;;;10.52;2.40;;;;;;;;;;4899166;29;20102;-81
2021/03/12 11:48:28;;;;;;;10.35;2.35;;;;;;;;;;4885072;29;20053;-83
2021/03/12 11:50:57;;;;;;;11.32;2.60;;;;;;;;;;4879820;29;20053;-83
2021/03/12 11:53:24;;;;;;;15.32;2.35;;;;;;;;;;4878424;29;20053;-83
2021/03/12 11:55:50;;;;;;;17.50;2.83;;;;;;;;;;4879809;29;20089;-83
2021/03/12 11:58:17;;;;;;;13.75;3.05;;;;;;;;;;4878725;29;20092;-82
2021/03/12 12:00:44;;;;;;;15.15;2.40;;;;;;;;;;4878032;29;20416;-83
2021/03/12 12:03:11;;;;;;;25.55;4.32;;;;;;;;;;4879273;29;20499;-83
2021/03/12 12:05:39;;;;;;;13.77;2.20;;;;;;;;;;4876929;29;20049;-81
2021/03/12 12:08:06;;;;;;;9.07;2.50;;;;;;;;;;4878477;29;20057;-83
2021/03/12 12:10:34;;;;;;;17.60;2.53;;;;;;;;;;4878511;29;20862;-82
2021/03/12 12:13:05;;;;;;;10.25;1.88;;;;;;;;;;4879754;29;20132;-82
2021/03/12 12:15:32;;;;;;;10.27;2.50;;;;;;;;;;4877903;29;20053;-82
2021/03/12 12:18:07;;;;;;;9.30;2.15;;;;;;;;;;4878614;29;20060;-82
2021/03/12 12:20:56;;;;;;;9.75;2.17;;;;;;;;;;4878574;29;20387;-82
2021/03/12 12:23:23;;;;;;;13.50;2.33;;;;;;;;;;4875324;29;20052;-81
2021/03/12 12:25:50;;;;;;;8.32;1.85;;;;;;;;;;4877738;29;20053;-83
2021/03/12 12:28:17;;;;;;;7.85;1.90;;;;;;;;;;4876017;29;20049;-81
2021/03/12 12:30:45;;;;;;;9.10;1.92;;;;;;;;;;4877736;29;20057;-81
2021/03/12 12:33:13;;;;;;;9.18;2.42;;;;;;;;;;4878230;29;20049;-82
2021/03/12 12:35:40;;;;;;;12.35;2.65;;;;;;;;;;4879478;29;20056;-81
2021/03/12 12:38:07;;;;;;;7.65;2.20;;;;;;;;;;4877870;29;20063;-84
2021/03/12 12:40:40;;;;;;;14.75;2.67;;;;;;;;;;4879739;29;20092;-84
2021/03/12 12:43:07;;;;;;;9.85;2.25;;;;;;;;;;4877973;29;20084;-84
2021/03/12 12:45:34;;;;;;;5.93;2.25;;;;;;;;;;4877201;29;20076;-83
2021/03/12 12:48:00;;;;;;;8.85;1.85;;;;;;;;;;4878227;29;20053;-83
2021/03/12 12:50:28;;;;;;;7.18;1.80;;;;;;;;;;4877317;29;20057;-82
2021/03/12 12:52:56;;;;;;;12.02;1.90;;;;;;;;;;4877227;29;20060;-84
2021/03/12 12:55:29;;;;;;;14.70;2.03;;;;;;;;;;4877693;29;20053;-84
2021/03/12 12:57:56;;;;;;;6.20;1.63;;;;;;;;;;4877009;29;20057;-83
2021/03/12 13:00:23;;;;;;;8.90;2.80;;;;;;;;;;4876750;29;20063;-83
2021/03/12 13:02:50;;;;;;;8.57;2.10;;;;;;;;;;4877445;29;20546;-84
2021/03/12 13:05:17;;;;;;;10.32;2.20;;;;;;;;;;4877105;29;20060;-83
2021/03/12 13:07:43;;;;;;;8.65;2.15;;;;;;;;;;4877588;29;20045;-84
2021/03/12 13:10:11;;;;;;;7.07;2.63;;;;;;;;;;4877033;29;20098;-84
2021/03/12 13:12:38;;;;;;;11.43;2.45;;;;;;;;;;4878348;29;20128;-84
2021/03/12 13:15:05;;;;;;;11.73;2.30;;;;;;;;;;4878725;29;20109;-84
2021/03/12 13:17:32;;;;;;;9.18;2.60;;;;;;;;;;4876679;29;20053;-84
2021/03/12 13:20:00;;;;;;;11.30;2.38;;;;;;;;;;4874635;29;20107;-83
2021/03/12 13:22:27;;;;;;;9.85;2.45;;;;;;;;;;4876467;29;20061;-84
2021/03/12 13:24:54;;;;;;;12.75;2.50;;;;;;;;;;4876631;29;20151;-84
2021/03/12 13:27:26;;;;;;;9.45;2.78;;;;;;;;;;4876294;29;20076;-81
2021/03/12 13:29:52;;;;;;;11.23;3.03;;;;;;;;;;4876815;29;20053;-83
2021/03/12 13:32:20;;;;;;;14.63;3.28;;;;;;;;;;4876641;29;20064;-83
2021/03/12 13:34:47;;;;;;;10.82;2.53;;;;;;;;;;4876227;29;20500;-83
2021/03/12 13:37:17;;;;;;;11.25;2.97;;;;;;;;;;4876739;29;20068;-83
2021/03/12 13:39:43;;;;;;;13.27;3.00;;;;;;;;;;4876203;29;20052;-83
2021/03/12 13:42:10;;;;;;;12.35;2.40;;;;;;;;;;4876699;29;20049;-83
2021/03/12 13:44:37;;;;;;;19.13;2.55;;;;;;;;;;4876573;29;20077;-83
2021/03/12 13:47:04;;;;;;;12.35;2.63;;;;;;;;;;4876388;29;20542;-83
2021/03/12 13:49:31;;;;;;;12.85;3.22;;;;;;;;;;4877542;29;20064;-83
2021/03/12 13:52:10;;;;;;;14.77;2.70;;;;;;;;;;4876442;29;20053;-83
2021/03/12 13:54:37;;;;;;;11.70;2.35;;;;;;;;;;4875902;29;20128;-84
2021/03/12 13:57:05;;;;;;;8.32;2.95;;;;;;;;;;4876295;29;20052;-83
2021/03/12 13:59:34;;;;;;;6.43;1.90;;;;;;;;;;4876492;29;20564;-83
2021/03/12 14:02:02;;;;;;;8.98;1.75;;;;;;;;;;4876305;29;20053;-83
2021/03/12 14:04:29;;;;;;;12.50;2.20;;;;;;;;;;4875775;29;20126;-84
2021/03/12 14:06:55;;;;;;;6.97;1.75;;;;;;;;;;4875989;29;20057;-83
2021/03/12 14:09:22;;;;;;;7.25;2.50;;;;;;;;;;4876026;29;20048;-83
2021/03/12 14:11:49;;;;;;;8.50;1.90;;;;;;;;;;4877043;29;20094;-83
2021/03/12 14:14:17;;;;;;;7.50;1.75;;;;;;;;;;4875752;29;20148;-82
2021/03/12 14:16:45;;;;;;;6.55;2.05;;;;;;;;;;4875459;29;20057;-83
2021/03/12 14:19:15;;;;;;;6.07;1.88;;;;;;;;;;4876520;29;20060;-83
2021/03/12 14:21:45;;;;;;;6.85;1.80;;;;;;;;;;4875629;29;20404;-82
2021/03/12 14:24:28;;;;;;;8.23;1.38;;;;;;;;;;4875438;29;20142;-84
2021/03/12 14:26:54;;;;;;;5.97;1.95;;;;;;;;;;4875785;29;20080;-83
2021/03/12 14:29:24;;;;;;;7.55;1.42;;;;;;;;;;4875151;29;20105;-83
2021/03/12 14:31:55;;;;;;;7.40;1.50;;;;;;;;;;4875178;29;20451;-83
2021/03/12 14:34:27;;;;;;;12.35;1.80;;;;;;;;;;4875891;29;20056;-83
2021/03/12 14:36:57;;;;;;;9.35;2.13;;;;;;;;;;4876660;29;20053;-83
2021/03/12 14:39:24;;;;;;;7.13;2.00;;;;;;;;;;4875178;29;20073;-83
2021/03/12 14:41:54;;;;;;;6.60;1.80;;;;;;;;;;4875524;29;20124;-84
2021/03/12 14:44:22;;;;;;;6.68;1.75;;;;;;;;;;4875474;29;20498;-83
2021/03/12 14:46:50;;;;;;;11.85;2.35;;;;;;;;;;4874927;29;20073;-84
2021/03/12 14:49:18;;;;;;;11.75;1.85;;;;;;;;;;4875342;29;20059;-83